x

9410840 - Santa Monica Pier (icac1) Weather Station

9:54am - Fri 28th Apr 2017 All times are PDT. -7 hours from GMT.

  • Wind
    21mph, 31mph gusts
  • Sea Temp 53°f
  • 空気 Temp 73°f
  • Sea Pressure 1009.1mb
  • 9410840 - Santa Monica Pier
  • 9410840 - Santa Monica Pier

More Historic Weather Station data

Upgrade to MSW Pro to gain access to the past 30 days of data for over 8000 Wavebouys and Weather Stations around the globe.

Join Pro

Comparision Forecast

View Surf forecast
   
Fri 04/28 9:54am 21 31 mph 1009.1mb 53f 73f
9:48am 21 37 mph 1009mb 53f 73f
9:42am 23 32 mph 1009mb 53f 73f
9:36am 18 28 mph 1009.1mb 53f 72f
9:30am 23 37 mph 1009mb 53f 72f
9:24am 28 41 mph 1008.9mb 53f 71f
9:18am 32 48 mph 1008.7mb 53f 72f
9:12am 29 43 mph 1008.6mb 53f 72f
9:06am 31 40 mph 1008.5mb 53f 72f
9:00am 25 41 mph 1008.4mb 53f 72f
8:54am 28 41 mph 1008.4mb 53f 71f
8:48am 31 43 mph 1008.5mb 53f 71f
8:42am 28 36 mph 1008.5mb 53f 71f
8:36am 22 33 mph 1008.6mb 53f 71f
8:30am 20 38 mph 1008.6mb 53f 70f
8:24am 24 43 mph 1008.5mb 53f 70f
8:18am 14 28 mph 1008.4mb 53f 70f
8:06am 23 37 mph 1008.2mb 53f 70f
8:00am 28 43 mph 1008.2mb 53f 69f
7:54am 36 46 mph 1007.9mb 53f 70f
7:48am 31 44 mph 1008mb 53f 70f
7:42am 22 33 mph 1008.2mb 53f 70f
7:36am 20 32 mph 1008.2mb 53f 71f
7:30am 18 36 mph 1008.1mb 53f 71f
7:24am 26 41 mph 1007.7mb 53f 71f
7:18am 34 41 mph 1007.3mb 53f 70f
7:12am 29 40 mph 1007.3mb 53f 70f
7:06am 30 38 mph 1007.3mb 53f 70f
7:00am 25 31 mph 1007.3mb 53f 69f
6:54am 23 37 mph 1007.4mb 53f 69f
6:48am 24 40 mph 1007.4mb 53f 69f
6:42am 20 32 mph 1007.4mb 53f 69f
6:36am 22 32 mph 1007.3mb 53f 69f
6:30am 24 37 mph 1007.2mb 53f 69f
6:24am 31 40 mph 1007.1mb 53f 69f
6:18am 28 38 mph 1007mb 53f 69f
6:12am 30 39 mph 1006.8mb 53f 70f
6:06am 31 46 mph 1006.7mb 53f 70f
6:00am 24 29 mph 1006.9mb 53f 70f
5:54am 28 37 mph 1006.9mb 53f 70f
5:48am 25 31 mph 1006.9mb 53f 70f
5:42am 28 34 mph 1006.9mb 53f 71f
5:36am 24 36 mph 1006.9mb 53f 71f
5:30am 22 29 mph 1006.7mb 53f 71f
5:24am 14 26 mph 1007mb 53f 70f
5:18am 20 29 mph 1006.9mb 53f 70f
5:12am 22 30 mph 1007mb 53f 70f
5:06am 22 33 mph 1006.9mb 53f 71f
5:00am 29 38 mph 1006.7mb 53f 71f
4:30am 8 23 mph 1006.9mb 54f 70f
4:24am 20 33 mph 1006.6mb 54f 71f
4:18am 18 30 mph 1006.4mb 54f 70f
4:12am 21 43 mph 1006.3mb 54f 70f
4:06am 28 39 mph 1006.4mb 54f 71f
4:00am 31 43 mph 1006.4mb 54f 71f
3:54am 25 37 mph 1006.5mb 55f 70f
3:48am 24 34 mph 1006.4mb 55f 70f
3:42am 23 36 mph 1006.5mb 55f 70f
3:36am 30 45 mph 1006.5mb 55f 71f
3:30am 29 41 mph 1006.3mb 55f 71f
3:24am 29 43 mph 1006.1mb 56f 71f
3:18am 32 46 mph 1006.2mb 56f 71f
3:12am 32 46 mph 1006.1mb 56f 71f
3:06am 31 41 mph 1006.3mb 56f 71f
3:00am 24 31 mph 1006.3mb 56f 71f
2:54am 20 33 mph 1006.4mb 56f 71f
2:48am 21 32 mph 1006.5mb 57f 71f
2:42am 20 31 mph 1006.6mb 57f 71f
2:36am 26 38 mph 1006.5mb 57f 71f
2:30am 26 40 mph 1006.4mb 57f 71f
2:24am 24 43 mph 1006.4mb 57f 71f
2:18am 24 36 mph 1006.5mb 57f 71f
2:12am 22 33 mph 1006.7mb 57f 71f
2:06am 24 31 mph 1006.8mb 57f 71f
2:00am 24 37 mph 1006.9mb 57f 71f
1:54am 17 28 mph 1006.8mb 57f 71f
1:48am 26 40 mph 1006.9mb 57f 71f
1:42am 16 31 mph 1007mb 58f 71f
1:36am 21 33 mph 1006.9mb 58f 72f
1:30am 21 32 mph 1006.9mb 58f 72f
1:24am 17 33 mph 1007.1mb 58f 72f
1:18am 17 29 mph 1007.2mb 58f 72f
1:12am 24 34 mph 1007.1mb 58f 72f
1:06am 20 36 mph 1007.3mb 58f 72f
1:00am 22 40 mph 1007.2mb 58f 72f
12:54am 28 40 mph 1007.2mb 58f 73f
12:48am 20 30 mph 1007.4mb 58f 73f
12:42am 20 26 mph 1007.5mb 58f 73f
12:36am 21 32 mph 1007.5mb 58f 73f
12:30am 22 28 mph 1007.5mb 59f 73f
12:24am 20 29 mph 1007.6mb 58f 73f
12:18am 23 34 mph - - -
12:12am 24 36 mph 1007.6mb 58f 73f
12:06am 22 36 mph 1007.5mb 58f 73f
12:00am 24 38 mph 1007.5mb 58f 73f
Thu 04/27 11:54pm 22 38 mph 1007.4mb 58f 73f
11:48pm 22 32 mph - - -
11:42pm 22 34 mph 1007.4mb 59f 73f
11:36pm 20 31 mph 1007.5mb 59f 74f
11:30pm 21 30 mph 1007.5mb 59f 74f
11:24pm 24 31 mph 1007.5mb 59f 74f
11:18pm 21 32 mph - - -
11:12pm 24 37 mph 1007.7mb 59f 74f
11:06pm 24 31 mph 1007.7mb 59f 74f
11:00pm 24 38 mph 1007.6mb 59f 74f
10:54pm 17 36 mph 1007.5mb 59f 74f
10:48pm 24 39 mph 1007.5mb 59f 74f
10:42pm 22 33 mph 1007.6mb 59f 74f
10:36pm 22 32 mph 1007.6mb 59f 74f
10:30pm 23 38 mph 1007.7mb 59f 74f
10:24pm 22 34 mph 1007.6mb 60f 74f
10:18pm 26 33 mph 1007.7mb 60f 75f
10:12pm 20 33 mph 1007.7mb 59f 74f
10:06pm 18 32 mph 1007.8mb 59f 74f
10:00pm 23 37 mph 1007.6mb 59f 75f
9:54pm 22 30 mph 1007.6mb 59f 75f
9:48pm 18 32 mph 1007.6mb 59f 75f
9:42pm 18 34 mph 1007.6mb 60f 74f
9:36pm 17 29 mph 1007.5mb 60f 75f
9:30pm 20 29 mph 1007.6mb 60f 75f
9:24pm 20 29 mph 1007.6mb 60f 75f
9:18pm 21 29 mph 1007.5mb 60f 75f
9:12pm 18 28 mph 1007.5mb 60f 75f
9:06pm 16 25 mph 1007.5mb 60f 75f
9:00pm 20 25 mph 1007.5mb 60f 75f
8:54pm 17 29 mph 1007.6mb 60f 75f
8:48pm 18 31 mph - - -
8:42pm 18 34 mph 1007.5mb 61f 75f
8:36pm 20 36 mph 1007.4mb 61f 75f
8:30pm 17 36 mph 1007.2mb 61f 75f
8:24pm 21 29 mph 1007.2mb 61f 76f
8:18pm 22 32 mph 1007.1mb 61f 76f
8:12pm 18 29 mph 1007mb 61f 76f
8:06pm 24 32 mph 1007mb 61f 76f
8:00pm 20 30 mph 1006.8mb 61f 76f
7:54pm 20 29 mph 1006.6mb 61f 76f
7:48pm 20 33 mph 1006.6mb 61f 77f
7:42pm 13 21 mph 1006.6mb 61f 77f
7:36pm 9 20 mph 1006.7mb 61f 76f
7:30pm 5 8 mph 1006.7mb 61f 74f
7:24pm 7 10 mph 1006.8mb 61f 73f
7:18pm 2 8 mph - - -
7:12pm 2 10 mph 1006.8mb 61f 66f
7:06pm 6 8 mph 1006.8mb 61f 67f
7:00pm 2 3 mph 1006.8mb 61f 63f
6:54pm 3 6 mph 1006.9mb 61f 63f
6:48pm 6 7 mph 1006.8mb - -
6:42pm 6
mph
1006.9mb 61f 62f
6:36pm 3 7 mph 1007.1mb 61f 63f
6:30pm 6 9 mph 1007.2mb 61f 63f
6:24pm 1 5 mph 1007mb 61f 64f
6:18pm 6 7 mph - - -
6:12pm 6 7 mph 1007.1mb 61f 62f
6:06pm 6 8 mph 1007.1mb 61f 62f
6:00pm 6 8 mph - 61f 62f
5:54pm 3 6 mph - 61f 63f
5:48pm 6 7 mph 1007.2mb 61f 62f
5:42pm 3 5 mph 1007.2mb 61f 63f
5:36pm 5 6 mph 1007.2mb 61f 62f
5:30pm 7 8 mph 1007.4mb 61f 62f
5:24pm 6 8 mph 1007.3mb 61f 62f
5:18pm 6 7 mph - - -
5:12pm 7 9 mph 1007.3mb 61f 62f
5:06pm 8 9 mph 1007.3mb 61f 62f
5:00pm 9 11 mph 1007.4mb 61f 62f
4:48pm 7 8 mph - - -
4:42pm 6 8 mph 1007.3mb 61f 62f
4:36pm 5 7 mph 1007.2mb 61f 61f
4:30pm 1 5 mph 1007.2mb 61f 63f
4:24pm 5 7 mph 1007.3mb 61f 61f
4:18pm 5 7 mph - - -
4:12pm 5 6 mph 1007.1mb 61f 62f
4:06pm 3 6 mph 1007.2mb 61f 61f
4:00pm 6 7 mph 1007.1mb 61f 60f
3:54pm 5 7 mph 1007.2mb 61f 60f
3:48pm 6 9 mph 1007.5mb - -
3:42pm 7 8 mph 1007.6mb 61f 60f
3:36pm 6 9 mph 1007.7mb 61f 60f
3:30pm 7 9 mph 1007.9mb 61f 60f
3:24pm 9 11 mph 1007.9mb 61f 60f
3:18pm 10
mph
- - -
3:12pm 8 10 mph 1008mb 61f 60f
3:06pm 9 10 mph 1007.9mb 61f 60f
3:00pm 9 13 mph 1008mb 61f 60f
2:54pm 10 14 mph 1008mb 60f 60f
2:48pm 10 13 mph - - -
2:42pm 11 13 mph 1008.1mb 61f 60f
2:36pm 10 13 mph 1008.2mb 61f 60f
2:30pm 10 13 mph 1008.2mb 61f 60f
2:24pm 10 13 mph 1008.2mb 61f 60f
2:18pm 9 11 mph 1008.3mb 60f 60f
2:12pm 9 10 mph 1008.3mb 60f 60f
2:06pm 9 10 mph 1008.4mb 61f 60f
2:00pm 10
mph
1008.5mb 60f 60f
1:54pm 8 10 mph 1008.6mb 60f 60f
1:48pm 8 9 mph 1008.8mb 60f 60f
1:42pm 7 8 mph 1008.8mb 60f 60f
1:36pm 5 11 mph 1008.9mb 60f 60f
1:30pm 8 9 mph 1008.9mb 61f 60f
1:24pm 6 8 mph 1008.9mb 60f 61f
1:18pm 6 9 mph 1008.9mb 60f 61f
1:12pm 7 8 mph 1009mb 60f 61f
1:06pm 6 9 mph 1008.9mb 60f 61f
1:00pm 9
mph
1009mb 60f 61f
12:54pm 7
mph
1009mb 60f 61f
12:48pm 3 6 mph 1009mb 60f 61f
12:42pm 7 8 mph 1009mb 60f 61f
12:36pm 6 7 mph 1009.2mb 60f 61f
12:30pm 3 7 mph 1009.3mb 60f 61f
12:24pm 8
mph
1009.5mb 60f 60f
12:18pm 6 7 mph 1009.5mb 60f 60f
12:12pm 6 7 mph 1009.6mb 60f 60f
12:06pm 5
mph
1009.7mb 60f 60f
12:00pm 2 6 mph 1009.9mb 60f 60f
11:54am 5 7 mph 1009.8mb 60f 59f
11:48am 6 7 mph 1009.8mb 60f 59f
11:42am 7 10 mph 1010mb 60f 59f
11:36am 10 11 mph 1009.7mb 60f 59f
11:30am 6 11 mph 1010mb 60f 59f
11:24am 10 11 mph 1009.5mb 60f 59f
11:18am 6 8 mph 1010mb 60f 60f
11:12am 6 7 mph 1010.1mb 60f 60f
11:06am 5 6 mph 1010mb 60f 60f
11:00am 6 7 mph 1010mb 60f 59f
10:54am 3 6 mph 1009.9mb 60f 60f
10:48am 6
mph
1009.9mb 60f 60f
10:42am 3 6 mph 1009.8mb 60f 59f
10:36am 5 7 mph 1010mb 60f 59f
10:30am 6 7 mph 1009.9mb 60f 58f
10:24am 5 6 mph 1009.9mb 60f 58f
10:18am 5 7 mph 1010.1mb 60f 58f
10:12am 6 7 mph 1010.2mb 60f 58f
10:06am 6
mph
1010mb 60f 58f
10:00am 3 6 mph 1010.1mb 60f 58f
9:36am 8 9 mph 1009.9mb 59f 58f
9:30am 7 8 mph 1010.1mb 59f 58f
9:24am 7 10 mph 1010.1mb 59f 58f
9:18am 9
mph
1010.1mb 59f 58f
9:12am 7 8 mph 1009.9mb 59f 58f
9:06am 8
mph
1010.1mb 59f 58f
9:00am 8 9 mph 1010mb 59f 58f
8:54am 7 8 mph 1010.2mb 59f 58f
8:48am 8
mph
- - -
8:42am 7 8 mph 1010.2mb 59f 58f
8:36am 6 7 mph 1010.1mb 59f 58f
8:30am 3 5 mph 1010.2mb 59f 59f
8:24am 2 5 mph 1010.1mb 59f 59f
8:18am 3 5 mph 1009.9mb 59f 59f
8:12am 5
mph
1009.9mb 59f 59f
8:06am 3
mph
1010mb 58f 59f
8:00am 2 3 mph 1009.9mb 58f 59f
7:54am 3 5 mph 1010mb 58f 59f
7:48am 5 6 mph - - -
7:42am 5 6 mph 1010mb 58f 58f
7:36am 5 6 mph 1010mb 58f 58f
7:30am 6
mph
1010.1mb 58f 58f
7:24am 6
mph
1010.1mb 58f 58f
7:18am 5
mph
1010mb 58f 58f
7:12am 5 6 mph 1010mb 58f 58f
7:06am 6 7 mph 1010mb 58f 58f
7:00am 5 6 mph 1010.1mb 58f 58f
6:54am 3
mph
1010.1mb 58f 58f
6:48am  -  2 mph - - -
6:42am 1 2 mph 1009.9mb 58f 58f
6:36am  -  2 mph 1009.8mb 58f 57f
6:30am 1 2 mph 1009.7mb 58f 58f
6:24am 2
mph
1009.8mb 58f 57f
6:18am  -  1 mph 1009.7mb 58f 58f
6:12am  -  1 mph 1009.7mb 58f 57f
6:06am  -  1 mph 1009.7mb 58f 58f
6:00am  -  2 mph 1009.7mb 58f 57f
5:54am 2 3 mph 1009.8mb 58f 58f
5:48am 2
mph
- - -
5:42am  -  2 mph 1009.5mb 58f 58f
5:36am 2 3 mph 1009.4mb 58f 58f
5:30am 2 3 mph 1009.4mb 58f 58f
5:24am 3
mph
1009.4mb 57f 58f
5:18am 3
mph
1009.4mb 57f 58f
5:12am 2 5 mph 1009.3mb 57f 58f
5:06am 3 5 mph 1009.3mb 57f 58f
5:00am 3
mph
1009.4mb 57f 57f
4:42am 2 3 mph 1009.6mb 57f 58f
4:36am 3
mph
1009.5mb 57f 58f
4:30am 3 5 mph 1009.7mb 57f 58f
4:24am 1 2 mph 1009.5mb 57f 58f
4:18am 1 3 mph 1009.6mb 57f 58f
4:12am 1 3 mph 1009.7mb 57f 58f
4:06am 2 5 mph 1009.5mb 57f 58f
4:00am 5 9 mph 1009.5mb 57f 58f
3:54am 8 9 mph 1009.4mb 57f 58f
3:48am 7 8 mph - - -
3:42am 6
mph
1009.6mb 57f 58f
3:36am 6 8 mph 1009.6mb 57f 58f
3:30am 6 9 mph 1009.6mb 57f 58f
3:24am 8 11 mph 1009.5mb 57f 58f
3:18am 7 10 mph 1009.4mb 57f 58f
3:12am 9 11 mph 1009.5mb 57f 58f
3:06am 7 9 mph 1009.7mb 57f 58f
3:00am 7 10 mph 1009.8mb 56f 58f
2:54am 7 8 mph 1009.9mb 57f 59f
2:48am 7 13 mph 1009.8mb 57f 59f
2:42am 10 14 mph 1009.6mb 57f 59f
2:36am 5 7 mph 1009.5mb 57f 59f
2:30am 3 6 mph 1009.6mb 57f 59f
2:24am 5 7 mph 1009.7mb 58f 59f
2:18am 5 6 mph 1009.8mb 58f 59f
2:12am 3 5 mph 1009.9mb 57f 59f
2:06am 3 5 mph 1009.9mb 57f 59f
2:00am 1 3 mph 1009.9mb 57f 59f
1:54am 3 5 mph 1009.8mb 57f 59f
1:48am 5 6 mph 1009.8mb 58f 59f
1:42am 5 6 mph 1010mb 58f 59f
1:36am 2
mph
1010.1mb 58f 59f
1:30am 2 3 mph 1010mb 58f 59f
1:24am 2 5 mph 1010mb 58f 60f
1:18am 5 6 mph 1009.8mb 58f 60f
1:12am 5 6 mph 1010mb 58f 60f
1:06am 7 8 mph 1010.1mb 58f 60f
1:00am 6 9 mph 1010mb 58f 60f
12:54am 8 10 mph 1010mb 58f 60f
12:48am 7 10 mph 1010.2mb 58f 60f
12:42am 9 10 mph 1010.4mb 58f 60f
12:36am 8 9 mph 1010.4mb 59f 60f
12:30am 6 8 mph 1010.6mb 58f 61f
12:24am 6 8 mph 1010.7mb 59f 61f
12:18am 6 7 mph 1010.7mb 59f 61f
12:12am 6 9 mph 1010.7mb 59f 61f
12:06am 7 8 mph 1010.6mb 58f 61f
12:00am 6 7 mph 1010.7mb 58f 61f
Wed 04/26 11:54pm 6 8 mph 1010.4mb 58f 60f
11:48pm 7 8 mph - - -
11:42pm 6 8 mph 1010.4mb 59f 60f
11:36pm 7 8 mph 1010.6mb 59f 60f
11:30pm 6 8 mph 1010.7mb 59f 60f
11:24pm 7 8 mph 1010.7mb 59f 60f
11:18pm 6 9 mph - - -
11:12pm 9 13 mph 1010.7mb 59f 60f
11:06pm 9 11 mph 1010.6mb 59f 60f
11:00pm 8 9 mph 1010.6mb 59f 60f
10:54pm 7 8 mph 1010.7mb 59f 60f
10:48pm 6 8 mph 1010.4mb 59f 60f
10:42pm 6 9 mph 1010.5mb 59f 60f
10:36pm 6 8 mph 1010.4mb 59f 60f
10:30pm 5 8 mph 1010.4mb 60f 60f
10:24pm 7 8 mph 1010.4mb 60f 60f
10:18pm 5 7 mph 1010.3mb 60f 60f
10:12pm 6 8 mph 1010.2mb 60f 60f
10:06pm 6
mph
1010.2mb 60f 60f
10:00pm 6 8 mph 1010.1mb 60f 60f
9:54pm 7
mph
1010.2mb 60f 60f
9:48pm 8 10 mph 1010.4mb 60f 60f
9:42pm 8 9 mph 1010.3mb 60f 60f
9:36pm 7 8 mph 1010.2mb 60f 60f
9:30pm 7 10 mph 1010.2mb 60f 60f
9:24pm 7 9 mph 1010.2mb 60f 60f
9:18pm 7 9 mph 1010.2mb 60f 60f
9:12pm 8 10 mph 1010.1mb 61f 60f
9:06pm 6 8 mph 1010.1mb 61f 59f
9:00pm 8 10 mph 1010mb 61f 59f
8:54pm 9 11 mph 1010.1mb 61f 59f
8:48pm 9 10 mph - - -
8:42pm 8 11 mph 1010.1mb 61f 59f
8:36pm 10 11 mph 1010mb 62f 59f
8:30pm 9 11 mph 1010.1mb 62f 59f
8:24pm 10
mph
1010.1mb 62f 59f
8:18pm 8 9 mph 1010mb 62f 59f
8:12pm 9 10 mph 1009.9mb 62f 59f
8:06pm 8 11 mph 1009.9mb 62f 59f
8:00pm 9 11 mph 1009.9mb 62f 59f
7:54pm 10 11 mph 1009.8mb 62f 59f
7:48pm 10 11 mph 1009.7mb 62f 59f
7:42pm 8 10 mph 1009.6mb 62f 59f
7:36pm 9 11 mph 1009.8mb 62f 60f
7:30pm 11 13 mph 1009.8mb 62f 60f
7:24pm 9
mph
1009.8mb 62f 60f
7:18pm 8 9 mph 1010mb 62f 61f
7:12pm 7
mph
1010mb 62f 61f
7:06pm 5 6 mph 1010mb 62f 61f
7:00pm 3
mph
1010.1mb 62f 62f
6:54pm  -  1 mph 1010.1mb 62f 64f
6:48pm 1 3 mph - - -
6:42pm 3 6 mph 1010.1mb 62f 61f
6:36pm 5 7 mph 1010.1mb 62f 61f
6:30pm 3 6 mph 1010mb 62f 62f
6:24pm 6 7 mph 1010.1mb 62f 62f
6:18pm 5 7 mph - - -
6:12pm 6 7 mph 1010.1mb 62f 62f
6:06pm 6
mph
1010mb 62f 62f
6:00pm 6 7 mph 1009.8mb 62f 61f
5:48pm 5 6 mph - - -
5:42pm 5 6 mph 1010.1mb 62f 60f
5:36pm 6 10 mph 1010.1mb 62f 60f
5:30pm 9 13 mph 1010mb 62f 60f
5:24pm 11 14 mph 1010.1mb 62f 60f
5:18pm 10 15 mph - - -
5:12pm 11 16 mph 1010.2mb 62f 60f
5:06pm 15 16 mph 1010.1mb 62f 60f
5:00pm 15 17 mph 1010.1mb 62f 60f
4:48pm 14 15 mph - - -
4:42pm 15 17 mph 1010mb 62f 61f
4:36pm 14 15 mph 1010.1mb 62f 61f
4:30pm 8 10 mph 1010.1mb 62f 62f
4:24pm 10 13 mph 1009.9mb 61f 62f
4:18pm 6 8 mph - - -
4:12pm 6 7 mph 1010.2mb 61f 63f
4:06pm 2 3 mph 1010.1mb 61f 63f
4:00pm 3 5 mph 1010.3mb 61f 63f
3:54pm 3 6 mph 1010.3mb 61f 63f
3:48pm 5 7 mph - - -
3:42pm 3 8 mph 1010.3mb 61f 62f
3:36pm 6 7 mph 1010.5mb 61f 62f
3:30pm 5 7 mph 1010.7mb 61f 62f
3:24pm 6 9 mph 1010.7mb 61f 61f
3:18pm 7 8 mph - - -
3:12pm 7 8 mph 1010.9mb 61f 60f
3:06pm 6 8 mph 1011.2mb 61f 60f
3:00pm 8
mph
1011.2mb 61f 60f
2:54pm 7 8 mph 1011.4mb 61f 61f
2:48pm 7 10 mph - - -
2:36pm 6 7 mph 1011.6mb 61f 61f
2:30pm 6 9 mph 1011.8mb 61f 61f
2:24pm 8 9 mph 1011.7mb 61f 61f
2:18pm 9 11 mph - - -
2:12pm 9 10 mph 1011.6mb 61f 60f
2:06pm 9 10 mph 1011.7mb 61f 60f
2:00pm 8 10 mph 1011.7mb 60f 60f
1:54pm 6 9 mph 1011.8mb 60f 60f
1:48pm 7 10 mph 1011.8mb 60f 59f
1:36pm 8 13 mph 1011.9mb 60f 59f
1:30pm 9 10 mph 1012mb 60f 59f
1:24pm 9 10 mph 1011.9mb 59f 59f
1:18pm 10 11 mph - - -
1:12pm 9 10 mph 1012.1mb 59f 59f
1:06pm 8 9 mph 1012.1mb 59f 59f
1:00pm 7 8 mph 1012mb 58f 59f
12:54pm 5 6 mph 1012.1mb 58f 60f
12:48pm 5 6 mph 1012.2mb 58f 59f
12:42pm 3 6 mph 1012.3mb 58f 60f
12:36pm 7
mph
1012.4mb 58f 59f
12:30pm 6 7 mph 1012.6mb 58f 60f
12:24pm 6 7 mph 1012.6mb 57f 60f
12:18pm 6 7 mph - - -
12:12pm 5 7 mph 1012.8mb 57f 59f
12:06pm 7
mph
1012.8mb 57f 59f
12:00pm 6
mph
1013mb 57f 60f
11:54am 5 6 mph 1013.1mb 58f 60f
11:48am 5 6 mph 1013.1mb 58f 60f
11:42am 5 7 mph 1013.2mb 57f 60f
11:36am 7 8 mph 1013.2mb 57f 60f
11:30am 6
mph
1013.2mb 57f 60f
11:24am 6 8 mph 1013.3mb 57f 60f
11:18am 7 9 mph 1013.3mb 57f 60f
11:12am 9 10 mph 1013.4mb 57f 60f
11:06am 9 10 mph 1013.5mb 57f 60f
11:00am 9 11 mph 1013.4mb 57f 60f
10:54am 10 13 mph 1013.5mb 56f 60f
10:48am 10 11 mph 1013.5mb 56f 60f
10:42am 9 11 mph 1013.3mb 56f 60f
10:36am 10 11 mph 1013.4mb 56f 60f
10:30am 9 10 mph 1013.3mb 56f 59f
10:24am 8 10 mph 1013.3mb 56f 60f
10:18am 9 10 mph 1013.3mb 56f 59f
10:12am 8 9 mph 1013.3mb 55f 59f
10:06am 10
mph
1013.2mb 55f 59f
10:00am 9 10 mph 1013.1mb 55f 59f
9:54am 9 10 mph 1013mb 55f 59f
9:48am 10 11 mph 1013mb 55f 59f
9:42am 9
mph
1012.9mb 55f 60f
9:36am 7 8 mph 1013mb 55f 61f
9:30am 5 6 mph 1013mb 55f 61f
9:24am 5
mph
1013.2mb 55f 61f
9:18am 3 5 mph 1013.3mb 55f 61f
9:12am 2
mph
1013.3mb 55f 62f
9:06am 1 3 mph 1013.3mb 55f 61f
9:00am 2 3 mph 1013.4mb 55f 60f
8:54am 3
mph
1013.3mb 55f 60f
8:48am 3
mph
1013.3mb 55f 60f
8:42am 5
mph
1013.3mb 55f 60f
8:36am 3
mph
1013.1mb 55f 60f
8:30am 5 6 mph 1013mb 55f 60f
8:24am 5
mph
1013.1mb 55f 60f
8:18am 5
mph
1012.9mb 55f 60f
8:06am 3 5 mph 1012.9mb 55f 61f
8:00am  -  2 mph 1012.8mb 55f 64f
7:54am 2 5 mph 1012.8mb 55f 64f
7:48am 2 3 mph 1012.7mb 55f 63f
7:42am 2 3 mph 1012.6mb 55f 62f
7:36am 2
mph
1012.8mb 55f 64f
7:30am 1 5 mph 1012.8mb 55f 62f
7:24am 5 6 mph 1012.5mb 55f 61f
7:18am 6 7 mph 1012.4mb 55f 60f
7:12am 7 8 mph 1012.4mb 55f 60f
7:06am 8 10 mph 1012.2mb 55f 60f
7:00am 7 8 mph 1012.3mb 55f 60f
6:54am 6 8 mph 1012.2mb 55f 60f
6:48am 6 8 mph 1012.4mb 55f 60f
6:42am 8 9 mph 1012.3mb 55f 60f
6:36am 3 9 mph 1012.3mb 55f 60f
6:30am 8 10 mph 1012.2mb 55f 60f
6:24am 8 10 mph 1012.3mb 55f 60f
6:18am 6 10 mph 1012.2mb 55f 60f
6:12am 6 8 mph 1012.2mb 55f 60f
6:06am 5 6 mph 1012.3mb 55f 60f
6:00am 5 7 mph 1012.3mb 55f 60f
5:48am 6 9 mph 1012.1mb 55f 60f
5:42am 7 8 mph 1012.1mb 55f 60f
5:36am 6 8 mph 1012.1mb 55f 60f
5:30am 7 9 mph 1012.1mb 55f 60f
5:24am 7 9 mph 1012mb 55f 60f
5:18am 8 9 mph 1011.9mb 55f 60f
5:12am 8 9 mph 1012mb 55f 60f
5:06am 7 8 mph 1011.9mb 55f 60f
5:00am 7 8 mph 1011.9mb 55f 60f
4:54am 7 9 mph 1011.9mb 55f 60f
4:48am 7 10 mph 1011.8mb 55f 60f
4:42am 6 8 mph 1011.9mb 55f 60f
4:36am 6 7 mph 1011.9mb 55f 60f
4:30am 6 8 mph 1011.9mb 55f 60f
4:24am 2 3 mph 1012mb 55f 60f
4:18am  -  2 mph 1012mb 56f 60f
4:12am 2 5 mph 1012mb 55f 60f
4:06am 1 2 mph 1012mb 55f 59f
4:00am 3 5 mph 1012mb 55f 60f
3:54am 3 9 mph 1011.9mb 55f 59f
3:48am 8 9 mph 1011.8mb 55f 60f
3:36am 8 10 mph 1011.7mb 55f 60f
3:30am 10
mph
1011.6mb 56f 60f
3:24am 10 11 mph 1011.6mb 56f 60f
3:18am 8 11 mph 1011.6mb 56f 60f
3:12am 10
mph
1011.6mb 56f 60f
3:06am 10
mph
1011.6mb 56f 61f
3:00am 9 10 mph 1011.6mb 56f 61f
2:54am 8 9 mph 1011.6mb 56f 62f
2:48am 9 10 mph 1011.9mb 56f 62f
2:42am 6 9 mph 1012mb 56f 63f
2:36am 6 8 mph 1012mb 56f 63f
2:30am 7 9 mph 1011.9mb 56f 64f
2:24am 8 9 mph 1011.9mb 56f 64f
2:18am 9 14 mph 1012mb 57f 64f
2:12am 8 10 mph 1012mb 57f 61f
2:06am 2 5 mph 1012mb 57f 62f
2:00am 2 7 mph 1012mb 57f 62f
1:54am 7 8 mph 1012mb 57f 61f
1:48am 2 5 mph 1012.1mb 57f 61f
1:42am 1 7 mph 1012.1mb 57f 60f
1:36am 2 11 mph 1012mb 57f 60f
1:30am 13 16 mph 1011.9mb 57f 62f
1:24am 14 16 mph 1011.9mb 57f 62f
1:18am 15
mph
1012.2mb 57f 60f
1:12am 14
mph
1012.4mb 57f 60f
1:06am 16 17 mph 1012.5mb 57f 64f
1:00am 5 9 mph 1012.4mb 57f 69f
12:54am 7 10 mph 1012.2mb 57f 70f
12:48am 7 10 mph 1012.3mb 57f 70f
12:42am 8 16 mph 1012.3mb 58f 70f
12:36am 15 18 mph 1012.1mb 58f 71f
12:30am 14 17 mph 1011.9mb 58f 70f
12:24am 13 15 mph 1012.1mb 58f 70f
12:18am 8 14 mph 1012.4mb 58f 71f
12:12am 9 14 mph 1012.4mb 58f 70f
12:06am 13 20 mph 1012.2mb 58f 71f
12:00am 8 18 mph 1012.3mb 58f 70f
Tue 04/25 11:54pm 14 22 mph 1012.1mb 58f 70f
11:48pm 18 26 mph 1011.9mb 58f 71f
11:42pm 15 29 mph 1012mb 58f 71f
11:36pm 25 34 mph 1012.1mb 58f 71f
11:30pm 22 34 mph 1011.9mb 58f 71f
11:24pm 21 31 mph 1012.1mb 58f 71f
11:18pm 18 26 mph 1012.2mb 59f 71f
11:12pm 16 28 mph 1012.3mb 58f 71f
11:06pm 20 31 mph 1012.2mb 59f 71f
11:00pm 24 31 mph 1012mb 59f 72f
10:54pm 21 32 mph 1012mb 59f 71f
10:48pm 22 29 mph 1012mb 59f 71f
10:42pm 23 37 mph 1012.1mb 59f -
10:36pm 20 30 mph 1012.1mb 59f -
10:30pm 20 30 mph 1012mb 58f 71f
10:24pm 26 37 mph 1011.8mb 59f 71f
10:18pm 29 38 mph 1011.8mb 59f 71f
10:12pm 28 36 mph 1012mb 59f 71f
10:06pm 30 37 mph 1012.1mb 59f 71f
10:00pm 25 34 mph 1012.2mb 60f 71f
9:54pm 18 29 mph 1012.2mb 60f 71f
9:48pm 22 30 mph 1012.2mb 60f 71f
9:42pm 18 31 mph 1012.3mb 60f 71f
9:36pm 24 33 mph 1012.1mb 60f 71f
9:30pm 18 26 mph 1012mb 60f 71f
9:24pm 16 29 mph 1012mb 59f 71f
9:18pm 22 31 mph 1011.9mb 59f 71f
9:12pm 23 29 mph 1011.8mb 59f 71f
9:06pm 20 25 mph 1011.9mb 60f 71f
9:00pm 18 24 mph 1011.9mb 60f 71f
8:54pm 20 23 mph 1011.9mb 60f 71f
8:48pm 16 24 mph 1011.7mb 60f 71f
8:42pm 14 26 mph 1011.7mb 60f 71f
8:36pm 18 26 mph 1011.6mb 60f 71f
8:30pm 17 22 mph 1011.5mb 60f 71f
8:24pm 16 29 mph 1011.5mb 60f 71f
8:18pm 15 25 mph 1011.6mb 60f 71f
8:12pm 15 23 mph 1011.6mb 60f 70f
8:06pm 10 15 mph 1011.6mb 60f 65f
8:00pm 9 13 mph 1011.6mb 60f 64f
7:54pm 8 11 mph 1011.6mb 60f 65f
7:48pm 6 14 mph 1011.6mb 60f 67f
7:42pm 10 13 mph 1011.6mb 60f 62f
7:36pm 7 8 mph 1011.6mb 60f 61f
7:30pm 6 7 mph 1011.5mb 60f 61f
7:24pm 5 6 mph 1011.6mb 60f 61f
7:18pm 3 5 mph - - -
7:12pm 2 5 mph 1011.5mb 60f 61f
7:06pm 2 5 mph 1011.5mb 60f 61f
7:00pm 2 5 mph 1011.4mb 60f 61f
6:54pm 2 6 mph 1011.2mb 60f 62f
6:48pm 3 7 mph - - -
6:42pm 6 9 mph 1011.2mb 60f 61f
6:36pm 8 11 mph 1011.1mb 60f 61f
6:30pm 6 8 mph 1011.1mb 60f 61f
6:24pm 6 7 mph 1011.3mb 60f 61f
6:18pm 7 9 mph - - -
6:12pm 6 11 mph 1011.3mb 59f 61f
6:06pm 10 13 mph 1011.2mb 59f 61f
6:00pm 10 14 mph 1011.2mb 59f 61f
5:54pm 14 15 mph 1011.1mb 60f 61f
5:48pm 9 13 mph - - -
5:42pm 9 15 mph 1011.2mb 59f 61f
5:36pm 11 14 mph 1011.2mb 59f 61f
5:30pm 11 16 mph 1011.2mb 59f 62f
5:24pm 14 16 mph 1011mb 59f 62f
5:18pm 14 16 mph 1011.1mb - -
5:12pm 16 20 mph 1011mb 59f 62f
5:06pm 13 15 mph 1011.1mb 59f 61f
5:00pm 14 17 mph 1011.3mb 59f 61f
4:48pm 14 17 mph 1011.4mb - -
4:42pm 16 18 mph 1011.4mb 59f 60f
4:36pm 15 18 mph 1011.4mb 58f 60f
4:30pm 17 20 mph 1011.3mb 58f 60f
4:24pm 17 21 mph 1011.4mb 58f 60f
4:18pm 18 21 mph 1011.3mb 58f 60f
4:12pm 17 21 mph 1011.3mb 59f 60f
4:06pm 14 16 mph 1011.6mb 58f 61f
4:00pm 15 17 mph 1011.6mb 58f 61f
3:54pm 14 17 mph 1011.7mb 59f 61f
3:48pm 16 20 mph 1011.8mb - -
3:42pm 15 17 mph 1011.8mb 58f 61f
3:36pm 15 17 mph 1011.8mb 58f 61f
3:30pm 16 18 mph 1011.9mb 58f 60f
3:24pm 16 20 mph 1011.9mb 58f 60f
3:18pm 17 21 mph 1012mb 58f 60f
3:12pm 18 21 mph 1012.1mb 58f 60f
3:06pm 18 22 mph 1012mb 58f 60f
3:00pm 17 21 mph 1012.1mb 58f 60f
2:48pm 16 21 mph - - -
2:42pm 18 21 mph 1012.4mb 58f 60f
2:36pm 18 20 mph 1012.3mb 58f 60f
2:30pm 17 20 mph 1012.5mb 58f 60f
2:24pm 17 20 mph 1012.5mb 58f 60f
2:18pm 17 20 mph 1012.6mb 58f 60f
2:12pm 15 16 mph 1012.7mb 58f 60f
2:06pm 10 13 mph 1012.8mb 58f 60f
2:00pm 7 13 mph 1012.9mb 58f 60f
1:54pm 10 15 mph 1012.9mb 58f 60f
1:48pm 14 17 mph 1012.7mb 58f 59f
1:42pm 15 17 mph 1012.8mb 57f 60f
1:36pm 13 15 mph 1012.8mb 57f 60f
1:30pm 14 16 mph 1012.9mb 58f 60f
1:24pm 15 16 mph 1013.1mb 58f 60f
1:18pm 11 14 mph 1013.3mb 58f 60f
1:12pm 14 16 mph 1013.4mb 58f 59f
1:06pm 16 17 mph 1013.3mb 58f 59f
1:00pm 16 17 mph 1013.4mb 58f 60f
12:54pm 14 16 mph 1013.3mb 58f 59f
12:48pm 14 15 mph 1013.4mb 58f 59f
12:42pm 14 17 mph 1013.6mb 58f 60f
12:36pm 13 15 mph 1013.5mb 58f 60f
12:30pm 10 14 mph 1013.5mb 58f 60f
12:24pm 11 14 mph 1013.6mb 58f 60f
12:18pm 11 13 mph 1013.6mb 58f 59f
12:12pm 8 11 mph 1013.8mb 58f 60f
12:06pm 9 11 mph 1013.9mb 58f 60f
12:00pm 10 13 mph 1013.7mb 58f 60f
11:54am 9 11 mph 1013.7mb 58f 61f
11:48am 7 10 mph 1013.7mb 58f 61f
11:42am 7 8 mph 1013.7mb 58f 61f
11:36am 6 8 mph 1013.8mb 58f 62f
11:30am 8 11 mph 1013.6mb 58f 61f
11:24am 8 10 mph 1013.6mb 58f 63f
11:18am 5 14 mph 1013.6mb 58f 65f
11:12am 7 9 mph 1013.5mb 58f 66f
11:06am 3 9 mph 1013.4mb 58f 66f
11:00am 6 18 mph 1013.4mb 58f 65f
10:54am 11 16 mph 1013.3mb 58f 69f
10:48am 10 14 mph 1013.3mb 58f 68f
10:42am 11 16 mph 1013.2mb 58f 68f
10:36am 15 23 mph 1013.3mb 58f 68f
10:30am 16 21 mph 1013.2mb 58f 68f
10:24am 13 18 mph 1013.3mb 58f 68f
10:18am 14 28 mph 1013.1mb 58f 68f
10:12am 18 26 mph 1012.9mb 58f 67f
10:06am 17 24 mph 1012.8mb 58f 67f
10:00am 15 24 mph 1012.8mb 58f 68f
9:54am 11 21 mph 1012.8mb 58f 68f
9:48am 15 28 mph 1012.9mb 59f 67f
9:42am 21 29 mph 1012.7mb 58f 67f
9:36am 18 31 mph 1012.5mb 58f 67f
9:30am 24 36 mph 1012.1mb 58f 67f
9:24am 25 34 mph 1011.9mb 58f 67f
9:18am 25 32 mph 1011.9mb 58f 67f
9:12am 20 25 mph 1011.9mb 58f 67f
9:06am 18 30 mph 1012mb 58f 67f
9:00am 5 17 mph 1011.9mb 58f 68f
8:54am 14 31 mph 1011.7mb 58f 67f
8:48am 21 31 mph 1011.5mb 58f 67f
8:42am 18 29 mph 1011.5mb 59f 67f
8:36am 18 26 mph 1011.5mb 59f 67f
8:30am 16 31 mph 1011.5mb 59f 67f
8:24am 25 37 mph 1011.3mb 59f 66f
8:18am 24 30 mph 1011.1mb 59f 66f
8:12am 14 21 mph 1011.4mb 59f 66f
8:06am 17 26 mph 1011.5mb 59f 65f
8:00am 15 21 mph 1011.7mb 59f 65f
7:54am 14 21 mph 1011.7mb 59f 65f
7:48am 14 20 mph 1011.8mb 59f 65f
7:42am 14 20 mph 1011.9mb 59f 65f
7:36am 15 26 mph 1011.8mb 59f 65f
7:30am 13 24 mph 1011.7mb 59f 64f
7:24am 15 22 mph 1011.6mb 60f 64f
7:18am 16 28 mph 1011.6mb 61f 64f
7:06am 13 28 mph 1011.5mb 61f 64f
7:00am 15 25 mph 1011.4mb 62f 64f
6:54am 11 25 mph 1011.4mb 62f 64f
6:48am 14 25 mph - - -
6:42am 17 24 mph 1011.1mb 62f 64f
6:36am 15 23 mph 1011.1mb 62f 64f
6:30am 14 22 mph 1011mb 62f 64f
6:24am 13 20 mph 1010.9mb 62f 64f
6:18am 11 25 mph 1010.8mb 62f 64f
6:06am 17 28 mph 1010.6mb 62f 64f
6:00am 21 32 mph 1010.6mb 62f 64f
5:54am 17 29 mph 1010.5mb 62f 64f
5:48am 20 30 mph 1010.4mb 62f 64f
5:42am 21 32 mph 1010.3mb 62f 64f
5:36am 21 37 mph 1010.3mb 62f 64f
5:30am 18 31 mph 1010.5mb 62f 64f
5:24am 16 30 mph 1010.5mb 62f 64f
5:18am 23 31 mph 1010.4mb 62f 65f
5:12am 25 37 mph 1010.5mb 62f 65f
5:06am 16 32 mph 1010.3mb 62f 65f
5:00am 17 30 mph 1010.4mb 62f 65f
4:54am 18 26 mph 1010.5mb 62f 65f
4:48am 18 33 mph - - -
4:42am 22 34 mph 1010.5mb 62f 65f
4:36am 14 30 mph 1010.5mb 62f 65f
4:30am 20 26 mph 1010.4mb 62f 65f
4:24am 13 25 mph 1010.4mb 62f 65f
4:18am 14 20 mph 1010.5mb 62f 66f
4:12am 9 18 mph 1010.5mb 62f 65f
4:06am 10 14 mph 1010.6mb 62f 66f
4:00am 9 18 mph 1010.5mb 62f 65f
3:54am 5 7 mph 1010.6mb 62f 65f
3:48am 5 9 mph 1010.6mb 62f 65f
3:42am 2 9 mph 1010.8mb 62f 66f
3:36am 3 9 mph 1010.8mb 62f 66f
3:30am 5 9 mph 1010.8mb 62f 66f
3:24am 2 6 mph 1010.8mb 62f 65f
3:18am 3 7 mph 1010.7mb 62f 66f
3:12am 7 8 mph 1010.8mb 62f 65f
3:06am 7 10 mph 1010.9mb 62f 64f
3:00am 7 10 mph 1010.9mb 62f 63f
2:54am 5 9 mph 1010.9mb 62f 65f
2:48am 7 11 mph 1011mb 62f 64f
2:42am 9 14 mph 1010.9mb 62f 65f
2:36am 6 8 mph 1010.8mb 62f 65f
2:30am 7 8 mph 1010.9mb 62f 65f
2:24am 5 8 mph 1010.9mb 62f 66f
2:18am 5 11 mph 1011mb 62f 66f
2:06am 6 9 mph 1011.2mb 62f 64f
2:00am 3 9 mph 1011.3mb 62f 63f
1:54am 5 6 mph 1011.3mb 62f 62f
1:48am 2 9 mph 1011.4mb 62f 62f
1:42am 9 13 mph 1011.3mb 62f 62f
1:36am 10 14 mph 1011.5mb 62f 62f
1:30am 10 13 mph 1011.5mb 62f 62f
1:24am 8 9 mph 1011.5mb 62f 62f
1:18am 7 8 mph 1011.5mb 62f 62f
1:12am 7 9 mph 1011.5mb 62f 62f
1:06am 7 8 mph 1011.5mb 62f 61f
1:00am 6 8 mph 1011.5mb 62f 61f
12:54am 2 3 mph 1011.6mb 62f 59f
12:48am 1 2 mph 1011.6mb 62f 59f
12:42am 2 3 mph 1011.6mb 62f 59f
12:36am 1 2 mph 1011.7mb 62f 59f
12:30am 2 3 mph 1011.7mb 62f 59f
12:24am 2 3 mph 1011.8mb 62f 59f
12:18am 2 3 mph 1011.6mb 62f 59f
12:12am  -  2 mph 1011.6mb 62f 59f
12:06am  -  1 mph 1011.5mb 62f 59f
12:00am  -  1 mph 1011.7mb 62f 59f
Mon 04/24 11:54pm 2 3 mph 1011.7mb 62f 59f
11:48pm 2 3 mph 1011.6mb 62f 59f
11:42pm  -  2 mph 1011.5mb 62f -
11:36pm  -  2 mph 1011.5mb 62f -
11:30pm 2
mph
1011.7mb 62f 58f
11:24pm  -  1 mph 1011.6mb 61f 58f
11:18pm  -  2 mph - - -
11:12pm  -  3 mph 1011.6mb 61f 58f
11:06pm 2
mph
1011.3mb 61f 59f
11:00pm  -  3 mph 1011.5mb 61f 58f
10:54pm 3 5 mph 1011.5mb 61f 58f
10:48pm 1 2 mph 1011.4mb 60f 58f
10:42pm 2 3 mph 1011.7mb 60f 58f
10:36pm 3 7 mph 1011.6mb 60f 58f
10:30pm 5 7 mph 1011.4mb 60f 58f
10:24pm 6 9 mph 1011.9mb 60f 58f
10:18pm 7 9 mph 1011.9mb 60f 58f
10:12pm 9 10 mph 1011.8mb 60f 58f
10:06pm 7 9 mph 1012.1mb 60f 58f
10:00pm 7 9 mph 1012.3mb 60f 58f
9:54pm 7 9 mph 1012.3mb 61f 58f
9:48pm 7 9 mph 1012.2mb 61f 58f
9:42pm 8 9 mph 1012.1mb 60f 58f
9:36pm 7 8 mph 1012mb 61f 58f
9:30pm 8 9 mph 1011.9mb 61f 58f
9:24pm 8 9 mph 1011.8mb 61f 58f
9:18pm 7 8 mph 1011.6mb 60f 58f
9:12pm 7 8 mph 1011.6mb 60f 59f
9:06pm 7 8 mph 1011.5mb 60f 58f
9:00pm 6 9 mph 1011.5mb 61f 58f
8:54pm 8 9 mph 1011.4mb 61f 58f
8:48pm 7 9 mph - - -
8:42pm 7 9 mph 1011.1mb 60f 58f
8:36pm 7 8 mph 1011.1mb 60f 58f
8:30pm 7 8 mph 1011.4mb 60f 58f
8:24pm 6 8 mph 1011.4mb 61f 59f
8:18pm 6 8 mph 1011.5mb 61f 59f
8:12pm 6
mph
1011.5mb 61f 59f
8:06pm 3 5 mph 1011.3mb 61f 59f
8:00pm  -  6 mph 1011.4mb 61f 59f
7:54pm 5 6 mph 1011.3mb 61f 59f
7:48pm 5 7 mph 1011.3mb 62f 59f
7:42pm 5 7 mph 1011.3mb 62f 59f
7:36pm 7 9 mph 1011.4mb 62f 59f
7:30pm 9 13 mph 1011.4mb 62f 59f
7:24pm 11 13 mph 1011.5mb 62f 59f
7:18pm 13 14 mph - - -
7:12pm 14 15 mph 1011.5mb 63f 58f
7:06pm 15 16 mph 1011.4mb 63f 59f
7:00pm 16 18 mph 1011.3mb 63f 58f
6:48pm 16 18 mph - - -
6:42pm 16 18 mph 1011.5mb 64f 59f
6:36pm 17 21 mph 1011.6mb 64f 58f
6:30pm 17 18 mph 1011.6mb 64f 58f
6:24pm 17 18 mph 1011.6mb 64f 58f
6:18pm 17 20 mph - - -
6:12pm 17 20 mph 1011.7mb 64f 59f
6:06pm 18 21 mph 1011.7mb 65f 58f
6:00pm 18 20 mph 1011.8mb 65f 58f